Aérodrome :
LOGIN :

S'inscrire | Disclaimer

   EN    FR    IT 

 










Légende :    VFR   VFR Marginal   IFR   IFR Intensif   IFR Très Intensif
Visi : 
Plafond : 
>= 8 km
>= 3000ft
5 à 8 km
1000 à 3000 ft
1500m à 5 km
500 à 1000 ft
800 à 1500m
200 à 500 ft
< 800m
< 200 ft
Symboles :   Orages  Brouillard  Fortes neiges  Fortes précipitations  Vent > 20 kt
SIGMETs :   Divers  Orages  Givrage  Turbulence  Onde Orograph.  Cendres Volcan.







- Altitude de l'aérodrome : 776 ft
- Code IATA : RMS


ETAR - Ramstein Air Base

DERNIER METAR :
  • 222358Z 24010G18KT 9999 OVC012 08/08 A2985 RMK AO2A PK WND 23028/2258 RAB09E19 SLP115 P0000 60000 T00830077 10092 20083 401030083 58003 $

METARs EXPIRÉS :
  • 222319Z 24012G18KT 9999 OVC013 08/08 A2986 RMK AO2A RAB09E19
  • 222258Z 24018G26KT 9999 OVC014 08/08 A2986 RMK AO2A PK WND 26030/15 SLP118 T00840077 $
  • 222240Z 25014G26KT 9999 OVC014 09/07 A2986 RMK AO2A
  • 222215Z 25016G24KT 9999 OVC015 09/07 A2986 RMK AO2A
  • 222158Z 24014G27KT 9999 OVC014 09/08 A2987 RMK AO2A PK WND 23031/20 SLP122 T00870076 $
  • 222119Z 25017G23KT 9999 OVC013 09/08 A2987 RMK AO2A

TAF TAF ETAR
Valide du 22 à 18h jusqu'au 24 à 00h UTC


221805Z 2218/2324 25015G25KT 9999 OVC015 540004 QNH2984INS
TEMPO 2218/2220 25025G35KT
BECMG 2219/2220 25015G35KT 9000 -DZ OVC010 540004 QNH2978INS
BECMG 2301/2302 25015G35KT 8000 -RA OVC008 620709 621602 540004 QNH2972INS
BECMG 2303/2304 24015G25KT 9999 NSW OVC010 540004 QNH2952INS
BECMG 2311/2312 23020G35KT 9999 SCT015 BKN070 620709 621602 540004 QNH2942INS
BECMG 2316/2317 24020G35KT 9000 -SHRA BKN020 610309 611206 540004 QNH2943INS
TEMPO 2317/2324 25025G45KT TX12/2313Z TN07/2306Z
Pas de NOTAMs connus pour ce terrain.



MET'MAP, la Météo Aéronautique d'un coup d'oeil ! - Copyright ORBIFLY Décembre 2007 - Disclaimer

ORBIFLY MET'MAP TEAM :

Programmation & Développement : Alexandra Zaïnal
Conception & Développement : Baudouin d'Aumeries
Co-Programmation & Développement : Marc-Olivier Méhu
Soutien technique & logistique : Manuel Goepfert

Contact : metmap@orbifly.com




SOURCES & CREDITS :

   NOAA